Terminal Aerodrome Forecast
Issued by NWS

Home | Current Version | Previous Version | Text Only | Print | Product List | Glossary On
Versions: 1 2 3 4 5 6 7 8 9 10 11 12 13 14 15 16 17 18 19 20
000
FTAK31 PANC 240521
TAFAHO
TAF
PAHO 240521Z 2406/2506 VRB05KT P6SM -SHRA SCT025 OVC040
     FM240900 19006KT P6SM -RA OVC025
     FM241200 18013KT 5SM -RA BR OVC015
     FM242100 21015KT P6SM -RA BKN025 OVC040
     FM250000 24011KT P6SM -SHRA SCT030 BKN050=

USA.gov is the U.S. government's official web portal to all federal, state and local government web resources and services.